KTCL

Tuscaloosa Regional Airport

Tuscaloosa, Alabama, USA
METAR KTCL 191753Z 00000KT 10SM CLR 36/20 A2998 RMK AO2 SLP151 T03560200 10356 20211 58011
Observed Flight Rules
Sep-19 @ 17:53 UTC (an hour ago) Visual Flight Rules
Visibility Clouds
10 miles
  • Clear skies
Temperatures Readings
Current 36°C / 97°F
Dewpoint 20°C / 68°F
Humidity 39%
Altimeter 29.98" Hg
Pressure 1015.1 hPa
Elevation 49
METAR KTCL 191753Z 00000KT 10SM CLR 36/20 A2998 RMK AO2 SLP151 T03560200 10356 20211 58011
Observed Flight Rules
Sep-19 @ 17:53 UTC
(an hour ago)
VFR
Clouds
  • Clear skies
Temperature Dewpoint
36°C / 97°F 20°C / 68°F
Humidity Altimeter Pressure
39% 29.98" Hg 1015.1 hPa